sensor_id;sensor_type;location;lat;lon;timestamp;temperature;humidity
9410;DHT22;4744;52.576;13.568;2023-04-01T00:01:04;9.60;20.10
9410;DHT22;4744;52.576;13.568;2023-04-01T00:03:31;9.60;14.10
9410;DHT22;4744;52.576;13.568;2023-04-01T00:05:59;9.60;13.00
9410;DHT22;4744;52.576;13.568;2023-04-01T00:08:27;9.60;9.30
9410;DHT22;4744;52.576;13.568;2023-04-01T00:10:55;9.60;12.70
9410;DHT22;4744;52.576;13.568;2023-04-01T00:13:24;9.60;16.00
9410;DHT22;4744;52.576;13.568;2023-04-01T00:15:52;9.60;13.90
9410;DHT22;4744;52.576;13.568;2023-04-01T00:18:19;9.60;2.50
9410;DHT22;4744;52.576;13.568;2023-04-01T00:20:48;9.60;14.40
9410;DHT22;4744;52.576;13.568;2023-04-01T00:23:16;9.60;16.70
9410;DHT22;4744;52.576;13.568;2023-04-01T00:25:44;9.60;15.00
9410;DHT22;4744;52.576;13.568;2023-04-01T00:28:11;9.60;17.80
9410;DHT22;4744;52.576;13.568;2023-04-01T00:30:39;9.60;17.70
9410;DHT22;4744;52.576;13.568;2023-04-01T00:33:06;9.60;12.40
9410;DHT22;4744;52.576;13.568;2023-04-01T00:35:33;9.60;15.40
9410;DHT22;4744;52.576;13.568;2023-04-01T00:38:00;9.60;17.20
9410;DHT22;4744;52.576;13.568;2023-04-01T00:40:30;9.60;16.10
9410;DHT22;4744;52.576;13.568;2023-04-01T00:42:57;9.60;18.40
9410;DHT22;4744;52.576;13.568;2023-04-01T00:45:31;9.60;13.90
9410;DHT22;4744;52.576;13.568;2023-04-01T00:48:01;9.50;15.60
9410;DHT22;4744;52.576;13.568;2023-04-01T00:50:29;9.50;15.00
9410;DHT22;4744;52.576;13.568;2023-04-01T00:52:58;9.60;18.40
9410;DHT22;4744;52.576;13.568;2023-04-01T00:55:26;9.60;14.50
9410;DHT22;4744;52.576;13.568;2023-04-01T00:57:55;9.60;14.40
9410;DHT22;4744;52.576;13.568;2023-04-01T01:00:24;9.50;18.20
9410;DHT22;4744;52.576;13.568;2023-04-01T01:02:52;9.50;17.60
9410;DHT22;4744;52.576;13.568;2023-04-01T01:05:27;9.50;13.80
9410;DHT22;4744;52.576;13.568;2023-04-01T01:08:02;9.50;14.90
9410;DHT22;4744;52.576;13.568;2023-04-01T01:10:33;9.50;19.90
9410;DHT22;4744;52.576;13.568;2023-04-01T01:13:07;9.50;17.30
9410;DHT22;4744;52.576;13.568;2023-04-01T01:15:39;9.50;24.90
9410;DHT22;4744;52.576;13.568;2023-04-01T01:18:15;9.50;16.50
9410;DHT22;4744;52.576;13.568;2023-04-01T01:21:10;9.50;20.70
9410;DHT22;4744;52.576;13.568;2023-04-01T01:27:04;9.50;20.80
9410;DHT22;4744;52.576;13.568;2023-04-01T01:29:54;9.50;17.70
9410;DHT22;4744;52.576;13.568;2023-04-01T01:32:53;9.50;18.90
9410;DHT22;4744;52.576;13.568;2023-04-01T01:35:26;9.50;28.40
9410;DHT22;4744;52.576;13.568;2023-04-01T01:37:57;9.50;21.60
9410;DHT22;4744;52.576;13.568;2023-04-01T01:40:27;9.50;24.40
9410;DHT22;4744;52.576;13.568;2023-04-01T01:42:57;9.50;13.70
9410;DHT22;4744;52.576;13.568;2023-04-01T01:45:27;9.50;19.60
9410;DHT22;4744;52.576;13.568;2023-04-01T01:47:56;9.50;19.90
9410;DHT22;4744;52.576;13.568;2023-04-01T01:50:26;9.50;21.00
9410;DHT22;4744;52.576;13.568;2023-04-01T01:53:01;9.50;20.60
9410;DHT22;4744;52.576;13.568;2023-04-01T01:55:29;9.50;21.30
9410;DHT22;4744;52.576;13.568;2023-04-01T01:57:58;9.50;22.20
9410;DHT22;4744;52.576;13.568;2023-04-01T02:00:26;9.50;20.70
9410;DHT22;4744;52.576;13.568;2023-04-01T02:02:54;9.50;22.60
9410;DHT22;4744;52.576;13.568;2023-04-01T02:05:25;9.50;18.40
9410;DHT22;4744;52.576;13.568;2023-04-01T02:07:57;9.50;18.10
9410;DHT22;4744;52.576;13.568;2023-04-01T02:10:28;9.50;23.20
9410;DHT22;4744;52.576;13.568;2023-04-01T02:13:00;9.50;23.00
9410;DHT22;4744;52.576;13.568;2023-04-01T02:15:31;9.50;23.90
9410;DHT22;4744;52.576;13.568;2023-04-01T02:18:01;9.50;23.50
9410;DHT22;4744;52.576;13.568;2023-04-01T02:20:30;9.50;19.60
9410;DHT22;4744;52.576;13.568;2023-04-01T02:22:59;9.40;22.10
9410;DHT22;4744;52.576;13.568;2023-04-01T02:25:28;9.50;24.90
9410;DHT22;4744;52.576;13.568;2023-04-01T02:27:57;9.50;29.90
9410;DHT22;4744;52.576;13.568;2023-04-01T02:30:25;9.40;27.40
9410;DHT22;4744;52.576;13.568;2023-04-01T02:32:53;9.50;27.20
9410;DHT22;4744;52.576;13.568;2023-04-01T02:35:22;9.40;24.50
9410;DHT22;4744;52.576;13.568;2023-04-01T02:37:52;9.50;31.60
9410;DHT22;4744;52.576;13.568;2023-04-01T02:40:19;9.50;31.50
9410;DHT22;4744;52.576;13.568;2023-04-01T02:42:47;9.50;25.10
9410;DHT22;4744;52.576;13.568;2023-04-01T02:45:14;9.50;31.00
9410;DHT22;4744;52.576;13.568;2023-04-01T02:47:41;9.50;30.20
9410;DHT22;4744;52.576;13.568;2023-04-01T02:50:08;9.50;26.50
9410;DHT22;4744;52.576;13.568;2023-04-01T02:52:35;9.40;26.70
9410;DHT22;4744;52.576;13.568;2023-04-01T02:55:05;9.50;28.00
9410;DHT22;4744;52.576;13.568;2023-04-01T02:57:32;9.50;32.10
9410;DHT22;4744;52.576;13.568;2023-04-01T02:59:59;9.50;26.80
9410;DHT22;4744;52.576;13.568;2023-04-01T03:02:26;9.40;28.40
9410;DHT22;4744;52.576;13.568;2023-04-01T03:04:52;9.50;30.00
9410;DHT22;4744;52.576;13.568;2023-04-01T03:07:19;9.50;29.90
9410;DHT22;4744;52.576;13.568;2023-04-01T03:09:46;9.50;30.90
9410;DHT22;4744;52.576;13.568;2023-04-01T03:12:15;9.50;34.20
9410;DHT22;4744;52.576;13.568;2023-04-01T03:14:41;9.50;33.00
9410;DHT22;4744;52.576;13.568;2023-04-01T03:17:08;9.50;29.50
9410;DHT22;4744;52.576;13.568;2023-04-01T03:19:35;9.50;28.20
9410;DHT22;4744;52.576;13.568;2023-04-01T03:22:02;9.50;28.50
9410;DHT22;4744;52.576;13.568;2023-04-01T03:24:29;9.50;31.80
9410;DHT22;4744;52.576;13.568;2023-04-01T03:26:56;9.50;32.60
9410;DHT22;4744;52.576;13.568;2023-04-01T03:29:24;9.50;29.40
9410;DHT22;4744;52.576;13.568;2023-04-01T03:31:51;9.40;27.70
9410;DHT22;4744;52.576;13.568;2023-04-01T03:34:18;9.40;24.90
9410;DHT22;4744;52.576;13.568;2023-04-01T03:36:45;9.40;26.70
9410;DHT22;4744;52.576;13.568;2023-04-01T03:39:12;9.50;29.70
9410;DHT22;4744;52.576;13.568;2023-04-01T03:41:39;9.40;40.80
9410;DHT22;4744;52.576;13.568;2023-04-01T03:44:06;9.40;31.50
9410;DHT22;4744;52.576;13.568;2023-04-01T03:46:34;9.40;39.10
9410;DHT22;4744;52.576;13.568;2023-04-01T03:49:01;9.40;44.80
9410;DHT22;4744;52.576;13.568;2023-04-01T03:51:28;9.40;38.20
9410;DHT22;4744;52.576;13.568;2023-04-01T03:53:55;9.40;31.10
9410;DHT22;4744;52.576;13.568;2023-04-01T03:56:22;9.40;31.70
9410;DHT22;4744;52.576;13.568;2023-04-01T03:58:49;9.40;29.10
9410;DHT22;4744;52.576;13.568;2023-04-01T04:01:18;9.40;29.30
9410;DHT22;4744;52.576;13.568;2023-04-01T04:03:47;9.40;29.30
9410;DHT22;4744;52.576;13.568;2023-04-01T04:06:16;9.40;32.20
9410;DHT22;4744;52.576;13.568;2023-04-01T04:08:43;9.40;29.70
9410;DHT22;4744;52.576;13.568;2023-04-01T04:11:11;9.40;27.80
9410;DHT22;4744;52.576;13.568;2023-04-01T04:13:38;9.40;30.80
9410;DHT22;4744;52.576;13.568;2023-04-01T04:16:05;9.40;30.00
9410;DHT22;4744;52.576;13.568;2023-04-01T04:18:33;9.40;29.50
9410;DHT22;4744;52.576;13.568;2023-04-01T04:21:01;9.40;32.30
9410;DHT22;4744;52.576;13.568;2023-04-01T04:23:28;9.40;28.70
9410;DHT22;4744;52.576;13.568;2023-04-01T04:25:57;9.40;35.60
9410;DHT22;4744;52.576;13.568;2023-04-01T04:28:25;9.40;31.00
9410;DHT22;4744;52.576;13.568;2023-04-01T04:30:52;9.40;32.70
9410;DHT22;4744;52.576;13.568;2023-04-01T04:33:20;9.40;31.40
9410;DHT22;4744;52.576;13.568;2023-04-01T04:35:47;9.40;36.80
9410;DHT22;4744;52.576;13.568;2023-04-01T04:38:15;9.40;35.70
9410;DHT22;4744;52.576;13.568;2023-04-01T04:40:43;9.40;39.80
9410;DHT22;4744;52.576;13.568;2023-04-01T04:43:11;9.40;32.10
9410;DHT22;4744;52.576;13.568;2023-04-01T04:45:38;9.40;33.30
9410;DHT22;4744;52.576;13.568;2023-04-01T04:48:06;9.40;33.40
9410;DHT22;4744;52.576;13.568;2023-04-01T04:50:34;9.40;45.30
9410;DHT22;4744;52.576;13.568;2023-04-01T04:53:01;9.40;46.00
9410;DHT22;4744;52.576;13.568;2023-04-01T04:55:29;9.40;35.60
9410;DHT22;4744;52.576;13.568;2023-04-01T04:57:56;9.40;37.70
9410;DHT22;4744;52.576;13.568;2023-04-01T05:00:23;9.40;30.60
9410;DHT22;4744;52.576;13.568;2023-04-01T05:02:50;9.40;32.70
9410;DHT22;4744;52.576;13.568;2023-04-01T05:05:17;9.40;44.10
9410;DHT22;4744;52.576;13.568;2023-04-01T05:07:44;9.40;34.90
9410;DHT22;4744;52.576;13.568;2023-04-01T05:10:11;9.40;36.70
9410;DHT22;4744;52.576;13.568;2023-04-01T05:12:39;9.40;38.30
9410;DHT22;4744;52.576;13.568;2023-04-01T05:15:07;9.40;30.60
9410;DHT22;4744;52.576;13.568;2023-04-01T05:17:34;9.40;32.90
9410;DHT22;4744;52.576;13.568;2023-04-01T05:20:01;9.40;37.40
9410;DHT22;4744;52.576;13.568;2023-04-01T05:22:28;9.40;38.30
9410;DHT22;4744;52.576;13.568;2023-04-01T05:24:55;9.40;35.70
9410;DHT22;4744;52.576;13.568;2023-04-01T05:27:22;9.40;31.50
9410;DHT22;4744;52.576;13.568;2023-04-01T05:29:50;9.40;33.30
9410;DHT22;4744;52.576;13.568;2023-04-01T05:32:17;9.40;27.10
9410;DHT22;4744;52.576;13.568;2023-04-01T05:34:44;9.40;35.90
9410;DHT22;4744;52.576;13.568;2023-04-01T05:37:11;9.40;35.30
9410;DHT22;4744;52.576;13.568;2023-04-01T05:39:38;9.40;33.90
9410;DHT22;4744;52.576;13.568;2023-04-01T05:42:06;9.50;34.90
9410;DHT22;4744;52.576;13.568;2023-04-01T05:44:33;9.40;36.50
9410;DHT22;4744;52.576;13.568;2023-04-01T05:47:02;9.50;36.60
9410;DHT22;4744;52.576;13.568;2023-04-01T05:49:29;9.50;36.60
9410;DHT22;4744;52.576;13.568;2023-04-01T05:51:56;9.40;40.80
9410;DHT22;4744;52.576;13.568;2023-04-01T05:54:23;9.50;43.00
9410;DHT22;4744;52.576;13.568;2023-04-01T05:56:50;9.50;36.90
9410;DHT22;4744;52.576;13.568;2023-04-01T05:59:17;9.50;39.80
9410;DHT22;4744;52.576;13.568;2023-04-01T06:01:44;9.50;44.50
9410;DHT22;4744;52.576;13.568;2023-04-01T06:04:15;9.50;44.00
9410;DHT22;4744;52.576;13.568;2023-04-01T06:06:43;9.50;40.50
9410;DHT22;4744;52.576;13.568;2023-04-01T06:09:13;9.50;43.30
9410;DHT22;4744;52.576;13.568;2023-04-01T06:11:51;9.50;43.90
9410;DHT22;4744;52.576;13.568;2023-04-01T06:14:29;9.50;47.20
9410;DHT22;4744;52.576;13.568;2023-04-01T06:17:06;9.50;44.20
9410;DHT22;4744;52.576;13.568;2023-04-01T06:19:46;9.50;49.50
9410;DHT22;4744;52.576;13.568;2023-04-01T06:25:36;9.50;46.80
9410;DHT22;4744;52.576;13.568;2023-04-01T06:28:35;9.50;59.10
9410;DHT22;4744;52.576;13.568;2023-04-01T06:31:10;9.60;51.80
9410;DHT22;4744;52.576;13.568;2023-04-01T06:33:52;9.60;47.30
9410;DHT22;4744;52.576;13.568;2023-04-01T06:36:43;9.60;49.70
9410;DHT22;4744;52.576;13.568;2023-04-01T06:39:27;9.60;53.60
9410;DHT22;4744;52.576;13.568;2023-04-01T06:42:20;9.60;49.50
9410;DHT22;4744;52.576;13.568;2023-04-01T06:44:59;9.60;49.70
9410;DHT22;4744;52.576;13.568;2023-04-01T06:47:39;9.60;63.50
9410;DHT22;4744;52.576;13.568;2023-04-01T06:50:16;9.60;63.60
9410;DHT22;4744;52.576;13.568;2023-04-01T06:52:53;9.60;53.20
9410;DHT22;4744;52.576;13.568;2023-04-01T06:55:29;9.70;55.00
9410;DHT22;4744;52.576;13.568;2023-04-01T06:58:04;9.70;52.60
9410;DHT22;4744;52.576;13.568;2023-04-01T07:00:34;9.70;54.10
9410;DHT22;4744;52.576;13.568;2023-04-01T07:03:07;9.70;53.70
9410;DHT22;4744;52.576;13.568;2023-04-01T07:05:37;9.70;56.40
9410;DHT22;4744;52.576;13.568;2023-04-01T07:08:10;9.70;55.30
9410;DHT22;4744;52.576;13.568;2023-04-01T07:10:43;9.70;54.60
9410;DHT22;4744;52.576;13.568;2023-04-01T07:13:15;9.80;57.30
9410;DHT22;4744;52.576;13.568;2023-04-01T07:15:54;9.80;56.40
9410;DHT22;4744;52.576;13.568;2023-04-01T07:18:29;9.80;57.20
9410;DHT22;4744;52.576;13.568;2023-04-01T07:20:57;9.80;54.20
9410;DHT22;4744;52.576;13.568;2023-04-01T07:23:29;9.90;51.30
9410;DHT22;4744;52.576;13.568;2023-04-01T07:26:00;9.90;53.30
9410;DHT22;4744;52.576;13.568;2023-04-01T07:28:31;9.90;52.60
9410;DHT22;4744;52.576;13.568;2023-04-01T07:31:05;9.80;47.20
9410;DHT22;4744;52.576;13.568;2023-04-01T07:33:39;9.80;34.00
9410;DHT22;4744;52.576;13.568;2023-04-01T07:36:12;9.80;35.10
9410;DHT22;4744;52.576;13.568;2023-04-01T07:38:52;9.70;25.00
9410;DHT22;4744;52.576;13.568;2023-04-01T07:41:32;9.70;21.30
9410;DHT22;4744;52.576;13.568;2023-04-01T07:44:10;9.60;14.00
9410;DHT22;4744;52.576;13.568;2023-04-01T07:46:52;9.60;6.80
9410;DHT22;4744;52.576;13.568;2023-04-01T07:49:25;9.50;1.00
9410;DHT22;4744;52.576;13.568;2023-04-01T07:51:59;9.50;3.00
9410;DHT22;4744;52.576;13.568;2023-04-01T07:54:34;9.50;1.00
9410;DHT22;4744;52.576;13.568;2023-04-01T07:57:10;9.40;2.50
9410;DHT22;4744;52.576;13.568;2023-04-01T07:59:43;9.40;1.00
9410;DHT22;4744;52.576;13.568;2023-04-01T08:02:25;9.30;1.00
9410;DHT22;4744;52.576;13.568;2023-04-01T08:05:02;9.30;1.00
9410;DHT22;4744;52.576;13.568;2023-04-01T08:07:36;9.30;2.30
9410;DHT22;4744;52.576;13.568;2023-04-01T08:10:14;9.30;5.30
9410;DHT22;4744;52.576;13.568;2023-04-01T08:12:50;9.30;1.00
9410;DHT22;4744;52.576;13.568;2023-04-01T08:15:25;9.30;1.00
9410;DHT22;4744;52.576;13.568;2023-04-01T08:18:06;9.30;1.00
9410;DHT22;4744;52.576;13.568;2023-04-01T08:20:40;9.30;1.00
9410;DHT22;4744;52.576;13.568;2023-04-01T08:23:13;9.30;1.00
9410;DHT22;4744;52.576;13.568;2023-04-01T08:25:46;9.30;1.00
9410;DHT22;4744;52.576;13.568;2023-04-01T08:28:19;9.30;1.00
9410;DHT22;4744;52.576;13.568;2023-04-01T08:30:50;9.30;1.00
9410;DHT22;4744;52.576;13.568;2023-04-01T08:33:21;9.30;1.00
9410;DHT22;4744;52.576;13.568;2023-04-01T08:35:55;9.30;1.00
9410;DHT22;4744;52.576;13.568;2023-04-01T08:38:26;9.20;1.00
9410;DHT22;4744;52.576;13.568;2023-04-01T08:41:20;9.20;1.00
9410;DHT22;4744;52.576;13.568;2023-04-01T08:47:13;9.30;1.00
9410;DHT22;4744;52.576;13.568;2023-04-01T08:50:06;9.30;1.00
9410;DHT22;4744;52.576;13.568;2023-04-01T08:52:42;9.30;1.00
9410;DHT22;4744;52.576;13.568;2023-04-01T08:55:51;9.20;1.00
9410;DHT22;4744;52.576;13.568;2023-04-01T08:58:51;9.20;1.00
9410;DHT22;4744;52.576;13.568;2023-04-01T09:01:32;9.10;1.00
9410;DHT22;4744;52.576;13.568;2023-04-01T09:04:24;9.10;1.00
9410;DHT22;4744;52.576;13.568;2023-04-01T09:07:06;9.10;1.00
9410;DHT22;4744;52.576;13.568;2023-04-01T09:10:07;9.10;1.00
9410;DHT22;4744;52.576;13.568;2023-04-01T09:12:59;9.10;1.00
9410;DHT22;4744;52.576;13.568;2023-04-01T09:16:01;9.10;1.00
9410;DHT22;4744;52.576;13.568;2023-04-01T09:18:41;9.20;1.00
9410;DHT22;4744;52.576;13.568;2023-04-01T09:21:43;9.10;1.00
9410;DHT22;4744;52.576;13.568;2023-04-01T09:27:34;9.10;1.00
9410;DHT22;4744;52.576;13.568;2023-04-01T09:30:30;9.10;1.00
9410;DHT22;4744;52.576;13.568;2023-04-01T09:33:42;9.10;1.00
9410;DHT22;4744;52.576;13.568;2023-04-01T09:36:22;9.10;1.00
9410;DHT22;4744;52.576;13.568;2023-04-01T09:38:57;9.10;1.00
9410;DHT22;4744;52.576;13.568;2023-04-01T09:41:30;9.00;1.00
9410;DHT22;4744;52.576;13.568;2023-04-01T09:44:02;9.00;1.00
9410;DHT22;4744;52.576;13.568;2023-04-01T09:46:48;8.90;1.00
9410;DHT22;4744;52.576;13.568;2023-04-01T09:49:42;8.90;1.00
9410;DHT22;4744;52.576;13.568;2023-04-01T09:52:24;8.90;1.00
9410;DHT22;4744;52.576;13.568;2023-04-01T09:55:00;8.90;1.00
9410;DHT22;4744;52.576;13.568;2023-04-01T09:58:07;8.90;1.00
9410;DHT22;4744;52.576;13.568;2023-04-01T10:04:31;8.80;1.00
9410;DHT22;4744;52.576;13.568;2023-04-01T10:14:05;8.90;1.00
9410;DHT22;4744;52.576;13.568;2023-04-01T10:20:14;8.90;1.00
9410;DHT22;4744;52.576;13.568;2023-04-01T10:23:15;8.90;1.00
9410;DHT22;4744;52.576;13.568;2023-04-01T10:26:17;8.90;1.00
9410;DHT22;4744;52.576;13.568;2023-04-01T10:29:28;8.90;1.00
9410;DHT22;4744;52.576;13.568;2023-04-01T10:32:21;8.80;1.00
9410;DHT22;4744;52.576;13.568;2023-04-01T10:35:28;8.80;1.00
9410;DHT22;4744;52.576;13.568;2023-04-01T10:41:31;8.80;1.00
9410;DHT22;4744;52.576;13.568;2023-04-01T10:47:35;8.70;1.00
9410;DHT22;4744;52.576;13.568;2023-04-01T10:50:22;8.70;1.00
9410;DHT22;4744;52.576;13.568;2023-04-01T10:53:30;8.80;1.00
9410;DHT22;4744;52.576;13.568;2023-04-01T10:59:30;8.70;1.00
9410;DHT22;4744;52.576;13.568;2023-04-01T11:08:39;8.80;1.00
9410;DHT22;4744;52.576;13.568;2023-04-01T11:15:04;8.70;1.00
9410;DHT22;4744;52.576;13.568;2023-04-01T11:23:56;8.70;1.00
9410;DHT22;4744;52.576;13.568;2023-04-01T11:26:35;8.70;1.00
9410;DHT22;4744;52.576;13.568;2023-04-01T11:29:42;8.80;1.00
9410;DHT22;4744;52.576;13.568;2023-04-01T11:32:24;8.90;1.00
9410;DHT22;4744;52.576;13.568;2023-04-01T11:35:04;8.80;1.00
9410;DHT22;4744;52.576;13.568;2023-04-01T11:37:40;8.80;1.00
9410;DHT22;4744;52.576;13.568;2023-04-01T11:40:20;8.60;1.00
9410;DHT22;4744;52.576;13.568;2023-04-01T11:42:55;8.60;1.00
9410;DHT22;4744;52.576;13.568;2023-04-01T11:45:34;8.60;1.00
9410;DHT22;4744;52.576;13.568;2023-04-01T11:48:22;8.60;1.00
9410;DHT22;4744;52.576;13.568;2023-04-01T11:51:12;8.60;1.00
9410;DHT22;4744;52.576;13.568;2023-04-01T11:53:47;8.60;1.00
9410;DHT22;4744;52.576;13.568;2023-04-01T11:56:34;8.60;1.00
9410;DHT22;4744;52.576;13.568;2023-04-01T11:59:23;8.60;1.00
9410;DHT22;4744;52.576;13.568;2023-04-01T12:02:00;8.60;1.00
9410;DHT22;4744;52.576;13.568;2023-04-01T12:04:54;8.60;1.00
9410;DHT22;4744;52.576;13.568;2023-04-01T12:07:50;8.60;1.00
9410;DHT22;4744;52.576;13.568;2023-04-01T12:10:21;8.50;1.00
9410;DHT22;4744;52.576;13.568;2023-04-01T12:12:59;8.50;1.00
9410;DHT22;4744;52.576;13.568;2023-04-01T12:15:36;8.50;1.00
9410;DHT22;4744;52.576;13.568;2023-04-01T12:18:14;8.50;1.00
9410;DHT22;4744;52.576;13.568;2023-04-01T12:20:49;8.50;1.00
9410;DHT22;4744;52.576;13.568;2023-04-01T12:23:48;8.40;1.00
9410;DHT22;4744;52.576;13.568;2023-04-01T12:26:43;8.40;1.00
9410;DHT22;4744;52.576;13.568;2023-04-01T12:29:47;8.40;1.00
9410;DHT22;4744;52.576;13.568;2023-04-01T12:32:22;8.40;1.00
9410;DHT22;4744;52.576;13.568;2023-04-01T12:35:11;8.40;1.00
9410;DHT22;4744;52.576;13.568;2023-04-01T12:37:44;8.40;1.00
9410;DHT22;4744;52.576;13.568;2023-04-01T12:40:43;8.40;1.00
9410;DHT22;4744;52.576;13.568;2023-04-01T12:43:39;8.40;1.00
9410;DHT22;4744;52.576;13.568;2023-04-01T12:46:14;8.40;1.00
9410;DHT22;4744;52.576;13.568;2023-04-01T12:52:01;8.40;1.00
9410;DHT22;4744;52.576;13.568;2023-04-01T12:54:58;8.30;1.00
9410;DHT22;4744;52.576;13.568;2023-04-01T12:57:48;8.30;1.00
9410;DHT22;4744;52.576;13.568;2023-04-01T13:03:32;8.30;1.00
9410;DHT22;4744;52.576;13.568;2023-04-01T13:06:26;8.30;1.00
9410;DHT22;4744;52.576;13.568;2023-04-01T13:09:01;8.30;1.00
9410;DHT22;4744;52.576;13.568;2023-04-01T13:11:40;8.30;1.00
9410;DHT22;4744;52.576;13.568;2023-04-01T13:14:38;8.30;1.00
9410;DHT22;4744;52.576;13.568;2023-04-01T13:17:13;8.30;1.00
9410;DHT22;4744;52.576;13.568;2023-04-01T13:19:47;8.30;1.00
9410;DHT22;4744;52.576;13.568;2023-04-01T13:22:20;8.20;1.00
9410;DHT22;4744;52.576;13.568;2023-04-01T13:24:52;8.20;1.00
9410;DHT22;4744;52.576;13.568;2023-04-01T13:27:28;8.20;1.00
9410;DHT22;4744;52.576;13.568;2023-04-01T13:30:07;8.20;1.00
9410;DHT22;4744;52.576;13.568;2023-04-01T13:32:42;8.20;1.00
9410;DHT22;4744;52.576;13.568;2023-04-01T13:35:35;8.10;1.00
9410;DHT22;4744;52.576;13.568;2023-04-01T13:38:36;8.10;1.00
9410;DHT22;4744;52.576;13.568;2023-04-01T13:41:11;8.10;1.00
9410;DHT22;4744;52.576;13.568;2023-04-01T13:43:45;8.00;1.00
9410;DHT22;4744;52.576;13.568;2023-04-01T13:46:39;8.00;1.00
9410;DHT22;4744;52.576;13.568;2023-04-01T13:49:28;8.00;1.00
9410;DHT22;4744;52.576;13.568;2023-04-01T13:52:26;8.00;1.00
9410;DHT22;4744;52.576;13.568;2023-04-01T13:55:23;8.00;1.00
9410;DHT22;4744;52.576;13.568;2023-04-01T14:00:54;7.80;1.00
9410;DHT22;4744;52.576;13.568;2023-04-01T14:03:30;7.80;1.00
9410;DHT22;4744;52.576;13.568;2023-04-01T14:06:19;7.80;1.00
9410;DHT22;4744;52.576;13.568;2023-04-01T14:09:11;7.80;1.00
9410;DHT22;4744;52.576;13.568;2023-04-01T14:11:47;7.80;1.00
9410;DHT22;4744;52.576;13.568;2023-04-01T14:14:27;7.80;1.00
9410;DHT22;4744;52.576;13.568;2023-04-01T14:17:14;7.80;1.00
9410;DHT22;4744;52.576;13.568;2023-04-01T14:19:58;7.80;1.00
9410;DHT22;4744;52.576;13.568;2023-04-01T14:22:34;7.70;1.00
9410;DHT22;4744;52.576;13.568;2023-04-01T14:25:27;7.70;1.00
9410;DHT22;4744;52.576;13.568;2023-04-01T14:28:07;7.70;1.00
9410;DHT22;4744;52.576;13.568;2023-04-01T14:30:47;7.70;1.00
9410;DHT22;4744;52.576;13.568;2023-04-01T14:33:26;7.70;1.00
9410;DHT22;4744;52.576;13.568;2023-04-01T14:36:18;7.60;1.00
9410;DHT22;4744;52.576;13.568;2023-04-01T14:38:59;7.60;1.00
9410;DHT22;4744;52.576;13.568;2023-04-01T14:41:36;7.60;1.00
9410;DHT22;4744;52.576;13.568;2023-04-01T14:47:34;7.60;1.00
9410;DHT22;4744;52.576;13.568;2023-04-01T14:50:12;7.60;1.00
9410;DHT22;4744;52.576;13.568;2023-04-01T14:52:43;7.60;1.00
9410;DHT22;4744;52.576;13.568;2023-04-01T14:55:28;7.60;1.00
9410;DHT22;4744;52.576;13.568;2023-04-01T14:58:12;7.60;1.00
9410;DHT22;4744;52.576;13.568;2023-04-01T15:00:48;7.50;1.00
9410;DHT22;4744;52.576;13.568;2023-04-01T15:03:20;7.50;1.00
9410;DHT22;4744;52.576;13.568;2023-04-01T15:05:53;7.50;1.00
9410;DHT22;4744;52.576;13.568;2023-04-01T15:08:24;7.40;1.00
9410;DHT22;4744;52.576;13.568;2023-04-01T15:11:17;7.40;1.00
9410;DHT22;4744;52.576;13.568;2023-04-01T15:14:25;7.40;1.00
9410;DHT22;4744;52.576;13.568;2023-04-01T15:17:03;7.30;1.00
9410;DHT22;4744;52.576;13.568;2023-04-01T15:19:42;7.30;1.00
9410;DHT22;4744;52.576;13.568;2023-04-01T15:22:37;7.30;1.00
9410;DHT22;4744;52.576;13.568;2023-04-01T15:25:22;7.20;1.00
9410;DHT22;4744;52.576;13.568;2023-04-01T15:27:57;7.20;1.00
9410;DHT22;4744;52.576;13.568;2023-04-01T15:30:32;7.20;1.00
9410;DHT22;4744;52.576;13.568;2023-04-01T15:33:20;7.20;1.00
9410;DHT22;4744;52.576;13.568;2023-04-01T15:35:55;7.20;1.00
9410;DHT22;4744;52.576;13.568;2023-04-01T15:38:33;7.20;1.00
9410;DHT22;4744;52.576;13.568;2023-04-01T15:41:07;7.20;1.00
9410;DHT22;4744;52.576;13.568;2023-04-01T15:43:42;7.20;1.00
9410;DHT22;4744;52.576;13.568;2023-04-01T15:49:28;7.20;1.00
9410;DHT22;4744;52.576;13.568;2023-04-01T15:52:06;7.20;1.00
9410;DHT22;4744;52.576;13.568;2023-04-01T15:55:09;7.10;1.00
9410;DHT22;4744;52.576;13.568;2023-04-01T15:57:47;7.00;1.00
9410;DHT22;4744;52.576;13.568;2023-04-01T16:00:26;7.00;1.00
9410;DHT22;4744;52.576;13.568;2023-04-01T16:03:18;6.90;1.00
9410;DHT22;4744;52.576;13.568;2023-04-01T16:06:00;6.90;1.00
9410;DHT22;4744;52.576;13.568;2023-04-01T16:08:49;6.90;1.00
9410;DHT22;4744;52.576;13.568;2023-04-01T16:11:24;6.90;1.00
9410;DHT22;4744;52.576;13.568;2023-04-01T16:14:03;6.80;1.00
9410;DHT22;4744;52.576;13.568;2023-04-01T16:16:51;6.70;1.00
9410;DHT22;4744;52.576;13.568;2023-04-01T16:19:32;6.70;1.00
9410;DHT22;4744;52.576;13.568;2023-04-01T16:22:07;6.60;1.00
9410;DHT22;4744;52.576;13.568;2023-04-01T16:24:39;6.60;1.00
9410;DHT22;4744;52.576;13.568;2023-04-01T16:27:13;6.60;1.00
9410;DHT22;4744;52.576;13.568;2023-04-01T16:29:46;6.60;1.00
9410;DHT22;4744;52.576;13.568;2023-04-01T16:32:21;6.50;1.00
9410;DHT22;4744;52.576;13.568;2023-04-01T16:35:04;6.50;1.00
9410;DHT22;4744;52.576;13.568;2023-04-01T16:37:43;6.50;1.00
9410;DHT22;4744;52.576;13.568;2023-04-01T16:40:20;6.40;1.00
9410;DHT22;4744;52.576;13.568;2023-04-01T16:42:52;6.40;1.00
9410;DHT22;4744;52.576;13.568;2023-04-01T16:45:28;6.40;1.00
9410;DHT22;4744;52.576;13.568;2023-04-01T16:48:05;6.40;1.00
9410;DHT22;4744;52.576;13.568;2023-04-01T16:50:46;6.40;1.00
9410;DHT22;4744;52.576;13.568;2023-04-01T16:53:18;6.40;1.00
9410;DHT22;4744;52.576;13.568;2023-04-01T16:55:50;6.40;1.00
9410;DHT22;4744;52.576;13.568;2023-04-01T16:58:24;6.40;1.00
9410;DHT22;4744;52.576;13.568;2023-04-01T17:00:58;6.40;1.00
9410;DHT22;4744;52.576;13.568;2023-04-01T17:03:32;6.30;1.00
9410;DHT22;4744;52.576;13.568;2023-04-01T17:06:25;6.30;1.00
9410;DHT22;4744;52.576;13.568;2023-04-01T17:09:13;6.30;1.00
9410;DHT22;4744;52.576;13.568;2023-04-01T17:11:52;6.30;1.00
9410;DHT22;4744;52.576;13.568;2023-04-01T17:14:28;6.30;1.00
9410;DHT22;4744;52.576;13.568;2023-04-01T17:17:15;6.20;1.00
9410;DHT22;4744;52.576;13.568;2023-04-01T17:19:59;6.20;1.00
9410;DHT22;4744;52.576;13.568;2023-04-01T17:22:37;6.20;1.00
9410;DHT22;4744;52.576;13.568;2023-04-01T17:25:17;6.10;1.00
9410;DHT22;4744;52.576;13.568;2023-04-01T17:27:51;6.10;1.00
9410;DHT22;4744;52.576;13.568;2023-04-01T17:30:28;6.00;1.00
9410;DHT22;4744;52.576;13.568;2023-04-01T17:33:28;5.90;1.00
9410;DHT22;4744;52.576;13.568;2023-04-01T17:35:59;5.90;1.00
9410;DHT22;4744;52.576;13.568;2023-04-01T17:38:56;5.90;1.00
9410;DHT22;4744;52.576;13.568;2023-04-01T17:41:31;5.80;1.00
9410;DHT22;4744;52.576;13.568;2023-04-01T17:44:10;5.70;1.00
9410;DHT22;4744;52.576;13.568;2023-04-01T17:47:00;5.70;1.00
9410;DHT22;4744;52.576;13.568;2023-04-01T17:49:35;5.70;1.00
9410;DHT22;4744;52.576;13.568;2023-04-01T17:52:10;5.60;1.00
9410;DHT22;4744;52.576;13.568;2023-04-01T17:54:49;5.60;1.00
9410;DHT22;4744;52.576;13.568;2023-04-01T17:57:31;5.60;1.00
9410;DHT22;4744;52.576;13.568;2023-04-01T18:00:07;5.60;1.00
9410;DHT22;4744;52.576;13.568;2023-04-01T18:02:46;5.60;1.00
9410;DHT22;4744;52.576;13.568;2023-04-01T18:05:26;5.50;1.00
9410;DHT22;4744;52.576;13.568;2023-04-01T18:08:19;5.50;1.00
9410;DHT22;4744;52.576;13.568;2023-04-01T18:10:57;5.50;1.00
9410;DHT22;4744;52.576;13.568;2023-04-01T18:13:45;5.40;1.00
9410;DHT22;4744;52.576;13.568;2023-04-01T18:16:26;5.40;1.00
9410;DHT22;4744;52.576;13.568;2023-04-01T18:19:02;5.40;1.00
9410;DHT22;4744;52.576;13.568;2023-04-01T18:21:38;5.40;1.00